sensor_id;sensor_type;location;lat;lon;timestamp;pressure;altitude;pressure_sealevel;temperature
15709;BMP180;7954;51.914;8.420;2022-08-21T00:01:07;100401.22;;;24.79
15709;BMP180;7954;51.914;8.420;2022-08-21T00:03:37;100398.78;;;24.81
15709;BMP180;7954;51.914;8.420;2022-08-21T00:06:05;100399.47;;;24.71
15709;BMP180;7954;51.914;8.420;2022-08-21T00:08:41;100393.03;;;24.68
15709;BMP180;7954;51.914;8.420;2022-08-21T00:11:10;100399.09;;;24.68
15709;BMP180;7954;51.914;8.420;2022-08-21T00:13:39;100388.59;;;24.67
15709;BMP180;7954;51.914;8.420;2022-08-21T00:16:07;100378.84;;;24.64
15709;BMP180;7954;51.914;8.420;2022-08-21T00:18:35;100387.78;;;24.60
15709;BMP180;7954;51.914;8.420;2022-08-21T00:21:04;100385.75;;;24.57
15709;BMP180;7954;51.914;8.420;2022-08-21T00:23:33;100391.34;;;24.53
15709;BMP180;7954;51.914;8.420;2022-08-21T00:26:03;100393.41;;;24.49
15709;BMP180;7954;51.914;8.420;2022-08-21T00:28:31;100396.56;;;24.46
15709;BMP180;7954;51.914;8.420;2022-08-21T00:31:00;100401.06;;;24.40
15709;BMP180;7954;51.914;8.420;2022-08-21T00:33:32;100404.00;;;24.36
15709;BMP180;7954;51.914;8.420;2022-08-21T00:36:01;100406.88;;;24.24
15709;BMP180;7954;51.914;8.420;2022-08-21T00:38:30;100405.84;;;24.15
15709;BMP180;7954;51.914;8.420;2022-08-21T00:41:05;100407.13;;;24.18
15709;BMP180;7954;51.914;8.420;2022-08-21T00:43:54;100401.38;;;24.21
15709;BMP180;7954;51.914;8.420;2022-08-21T00:46:23;100408.03;;;24.19
15709;BMP180;7954;51.914;8.420;2022-08-21T00:48:54;100400.81;;;24.23
15709;BMP180;7954;51.914;8.420;2022-08-21T00:51:28;100399.09;;;24.31
15709;BMP180;7954;51.914;8.420;2022-08-21T00:54:06;100390.34;;;24.37
15709;BMP180;7954;51.914;8.420;2022-08-21T00:56:46;100388.91;;;24.39
15709;BMP180;7954;51.914;8.420;2022-08-21T00:59:18;100392.94;;;24.37
15709;BMP180;7954;51.914;8.420;2022-08-21T01:01:47;100389.59;;;24.38
15709;BMP180;7954;51.914;8.420;2022-08-21T01:04:16;100388.50;;;24.36
15709;BMP180;7954;51.914;8.420;2022-08-21T01:06:44;100390.53;;;24.39
15709;BMP180;7954;51.914;8.420;2022-08-21T01:09:13;100391.28;;;24.38
15709;BMP180;7954;51.914;8.420;2022-08-21T01:11:41;100392.19;;;24.38
15709;BMP180;7954;51.914;8.420;2022-08-21T01:14:13;100386.88;;;24.37
15709;BMP180;7954;51.914;8.420;2022-08-21T01:16:44;100383.00;;;24.40
15709;BMP180;7954;51.914;8.420;2022-08-21T01:19:12;100385.91;;;24.43
15709;BMP180;7954;51.914;8.420;2022-08-21T01:21:42;100379.66;;;24.41
15709;BMP180;7954;51.914;8.420;2022-08-21T01:24:12;100384.06;;;24.42
15709;BMP180;7954;51.914;8.420;2022-08-21T01:26:41;100377.84;;;24.40
15709;BMP180;7954;51.914;8.420;2022-08-21T01:29:14;100382.78;;;24.39
15709;BMP180;7954;51.914;8.420;2022-08-21T01:31:43;100378.19;;;24.36
15709;BMP180;7954;51.914;8.420;2022-08-21T01:34:12;100378.59;;;24.32
15709;BMP180;7954;51.914;8.420;2022-08-21T01:36:45;100381.44;;;24.27
15709;BMP180;7954;51.914;8.420;2022-08-21T01:39:13;100373.91;;;24.21
15709;BMP180;7954;51.914;8.420;2022-08-21T01:41:41;100378.56;;;24.17
15709;BMP180;7954;51.914;8.420;2022-08-21T01:44:09;100390.03;;;24.12
15709;BMP180;7954;51.914;8.420;2022-08-21T01:46:37;100408.16;;;24.05
15709;BMP180;7954;51.914;8.420;2022-08-21T01:49:05;100398.63;;;23.97
15709;BMP180;7954;51.914;8.420;2022-08-21T01:51:33;100393.88;;;23.93
15709;BMP180;7954;51.914;8.420;2022-08-21T01:54:03;100396.66;;;23.88
15709;BMP180;7954;51.914;8.420;2022-08-21T01:56:36;100393.59;;;23.83
15709;BMP180;7954;51.914;8.420;2022-08-21T01:59:05;100397.47;;;23.80
15709;BMP180;7954;51.914;8.420;2022-08-21T02:01:33;100388.28;;;23.75
15709;BMP180;7954;51.914;8.420;2022-08-21T02:04:01;100397.13;;;23.70
15709;BMP180;7954;51.914;8.420;2022-08-21T02:06:29;100388.13;;;23.66
15709;BMP180;7954;51.914;8.420;2022-08-21T02:08:57;100392.00;;;23.63
15709;BMP180;7954;51.914;8.420;2022-08-21T02:11:27;100395.00;;;23.59
15709;BMP180;7954;51.914;8.420;2022-08-21T02:13:55;100399.97;;;23.57
15709;BMP180;7954;51.914;8.420;2022-08-21T02:16:24;100395.22;;;23.53
15709;BMP180;7954;51.914;8.420;2022-08-21T02:18:52;100384.53;;;23.50
15709;BMP180;7954;51.914;8.420;2022-08-21T02:21:20;100380.50;;;23.45
15709;BMP180;7954;51.914;8.420;2022-08-21T02:23:48;100387.34;;;23.45
15709;BMP180;7954;51.914;8.420;2022-08-21T02:26:16;100390.66;;;23.44
15709;BMP180;7954;51.914;8.420;2022-08-21T02:28:49;100393.97;;;23.43
15709;BMP180;7954;51.914;8.420;2022-08-21T02:31:17;100385.91;;;23.40
15709;BMP180;7954;51.914;8.420;2022-08-21T02:33:44;100387.19;;;23.36
15709;BMP180;7954;51.914;8.420;2022-08-21T02:36:13;100381.88;;;23.35
15709;BMP180;7954;51.914;8.420;2022-08-21T02:38:41;100375.59;;;23.33
15709;BMP180;7954;51.914;8.420;2022-08-21T02:41:12;100382.44;;;23.32
15709;BMP180;7954;51.914;8.420;2022-08-21T02:43:40;100381.16;;;23.29
15709;BMP180;7954;51.914;8.420;2022-08-21T02:46:11;100376.00;;;23.29
15709;BMP180;7954;51.914;8.420;2022-08-21T02:48:40;100380.59;;;23.31
15709;BMP180;7954;51.914;8.420;2022-08-21T02:51:11;100385.03;;;23.32
15709;BMP180;7954;51.914;8.420;2022-08-21T02:53:39;100387.44;;;23.31
15709;BMP180;7954;51.914;8.420;2022-08-21T02:56:10;100378.91;;;23.32
15709;BMP180;7954;51.914;8.420;2022-08-21T02:58:43;100372.47;;;23.35
15709;BMP180;7954;51.914;8.420;2022-08-21T03:01:13;100369.88;;;23.42
15709;BMP180;7954;51.914;8.420;2022-08-21T03:03:44;100377.75;;;23.44
15709;BMP180;7954;51.914;8.420;2022-08-21T03:06:14;100376.66;;;23.42
15709;BMP180;7954;51.914;8.420;2022-08-21T03:08:42;100363.75;;;23.42
15709;BMP180;7954;51.914;8.420;2022-08-21T03:11:11;100358.41;;;23.47
15709;BMP180;7954;51.914;8.420;2022-08-21T03:13:41;100359.69;;;23.51
15709;BMP180;7954;51.914;8.420;2022-08-21T03:16:09;100360.94;;;23.54
15709;BMP180;7954;51.914;8.420;2022-08-21T03:18:38;100358.56;;;23.56
15709;BMP180;7954;51.914;8.420;2022-08-21T03:21:06;100357.03;;;23.58
15709;BMP180;7954;51.914;8.420;2022-08-21T03:23:34;100371.03;;;23.60
15709;BMP180;7954;51.914;8.420;2022-08-21T03:26:03;100369.38;;;23.60
15709;BMP180;7954;51.914;8.420;2022-08-21T03:28:33;100369.53;;;23.62
15709;BMP180;7954;51.914;8.420;2022-08-21T03:31:02;100368.63;;;23.61
15709;BMP180;7954;51.914;8.420;2022-08-21T03:33:32;100364.59;;;23.63
15709;BMP180;7954;51.914;8.420;2022-08-21T03:36:05;100377.28;;;23.62
15709;BMP180;7954;51.914;8.420;2022-08-21T03:38:35;100367.72;;;23.61
15709;BMP180;7954;51.914;8.420;2022-08-21T03:41:04;100378.94;;;23.61
15709;BMP180;7954;51.914;8.420;2022-08-21T03:43:34;100383.00;;;23.59
15709;BMP180;7954;51.914;8.420;2022-08-21T03:46:03;100381.75;;;23.56
15709;BMP180;7954;51.914;8.420;2022-08-21T03:48:33;100378.06;;;23.54
15709;BMP180;7954;51.914;8.420;2022-08-21T03:51:03;100390.25;;;23.48
15709;BMP180;7954;51.914;8.420;2022-08-21T03:53:31;100385.16;;;23.41
15709;BMP180;7954;51.914;8.420;2022-08-21T03:55:59;100384.84;;;23.31
15709;BMP180;7954;51.914;8.420;2022-08-21T03:58:28;100380.81;;;23.26
15709;BMP180;7954;51.914;8.420;2022-08-21T04:00:58;100384.53;;;23.21
15709;BMP180;7954;51.914;8.420;2022-08-21T04:03:27;100390.41;;;23.20
15709;BMP180;7954;51.914;8.420;2022-08-21T04:05:56;100391.16;;;23.19
15709;BMP180;7954;51.914;8.420;2022-08-21T04:08:26;100399.44;;;23.17
15709;BMP180;7954;51.914;8.420;2022-08-21T04:10:56;100398.00;;;23.12
15709;BMP180;7954;51.914;8.420;2022-08-21T04:13:25;100397.44;;;23.07
15709;BMP180;7954;51.914;8.420;2022-08-21T04:15:55;100408.88;;;23.02
15709;BMP180;7954;51.914;8.420;2022-08-21T04:18:23;100403.53;;;23.01
15709;BMP180;7954;51.914;8.420;2022-08-21T04:20:52;100407.59;;;22.99
15709;BMP180;7954;51.914;8.420;2022-08-21T04:23:21;100416.97;;;22.98
15709;BMP180;7954;51.914;8.420;2022-08-21T04:25:53;100410.38;;;23.00
15709;BMP180;7954;51.914;8.420;2022-08-21T04:28:22;100413.66;;;22.99
15709;BMP180;7954;51.914;8.420;2022-08-21T04:30:56;100411.47;;;22.95
15709;BMP180;7954;51.914;8.420;2022-08-21T04:33:29;100416.22;;;22.92
15709;BMP180;7954;51.914;8.420;2022-08-21T04:35:57;100421.03;;;22.89
15709;BMP180;7954;51.914;8.420;2022-08-21T04:38:25;100420.69;;;22.86
15709;BMP180;7954;51.914;8.420;2022-08-21T04:41:04;100417.56;;;22.82
15709;BMP180;7954;51.914;8.420;2022-08-21T04:43:33;100419.56;;;22.84
15709;BMP180;7954;51.914;8.420;2022-08-21T04:46:00;100426.56;;;22.78
15709;BMP180;7954;51.914;8.420;2022-08-21T04:48:28;100429.88;;;22.77
15709;BMP180;7954;51.914;8.420;2022-08-21T04:51:01;100424.94;;;22.72
15709;BMP180;7954;51.914;8.420;2022-08-21T04:53:35;100419.41;;;22.69
15709;BMP180;7954;51.914;8.420;2022-08-21T04:56:08;100419.22;;;22.67
15709;BMP180;7954;51.914;8.420;2022-08-21T04:58:39;100419.97;;;22.66
15709;BMP180;7954;51.914;8.420;2022-08-21T05:01:13;100430.25;;;22.66
15709;BMP180;7954;51.914;8.420;2022-08-21T05:03:43;100431.38;;;22.62
15709;BMP180;7954;51.914;8.420;2022-08-21T05:06:12;100428.06;;;22.63
15709;BMP180;7954;51.914;8.420;2022-08-21T05:08:44;100429.56;;;22.61
15709;BMP180;7954;51.914;8.420;2022-08-21T05:11:14;100427.50;;;22.65
15709;BMP180;7954;51.914;8.420;2022-08-21T05:13:42;100430.25;;;22.66
15709;BMP180;7954;51.914;8.420;2022-08-21T05:16:10;100432.09;;;22.67
15709;BMP180;7954;51.914;8.420;2022-08-21T05:18:39;100436.53;;;22.68
15709;BMP180;7954;51.914;8.420;2022-08-21T05:21:07;100428.25;;;22.71
15709;BMP180;7954;51.914;8.420;2022-08-21T05:24:00;100429.16;;;22.71
15709;BMP180;7954;51.914;8.420;2022-08-21T05:26:29;100431.00;;;22.72
15709;BMP180;7954;51.914;8.420;2022-08-21T05:28:57;100431.72;;;22.78
15709;BMP180;7954;51.914;8.420;2022-08-21T05:31:25;100427.47;;;22.79
15709;BMP180;7954;51.914;8.420;2022-08-21T05:33:53;100434.66;;;22.81
15709;BMP180;7954;51.914;8.420;2022-08-21T05:36:25;100435.03;;;22.84
15709;BMP180;7954;51.914;8.420;2022-08-21T05:38:53;100443.09;;;22.87
15709;BMP180;7954;51.914;8.420;2022-08-21T05:41:21;100444.94;;;22.88
15709;BMP180;7954;51.914;8.420;2022-08-21T05:43:50;100443.66;;;22.92
15709;BMP180;7954;51.914;8.420;2022-08-21T05:46:19;100442.72;;;22.98
15709;BMP180;7954;51.914;8.420;2022-08-21T05:48:48;100444.38;;;23.05
15709;BMP180;7954;51.914;8.420;2022-08-21T05:51:16;100451.72;;;23.16
15709;BMP180;7954;51.914;8.420;2022-08-21T05:53:44;100441.03;;;23.20
15709;BMP180;7954;51.914;8.420;2022-08-21T05:56:12;100441.75;;;23.26
15709;BMP180;7954;51.914;8.420;2022-08-21T05:58:41;100443.03;;;23.29
15709;BMP180;7954;51.914;8.420;2022-08-21T06:01:11;100441.00;;;23.33
15709;BMP180;7954;51.914;8.420;2022-08-21T06:03:41;100434.88;;;23.40
15709;BMP180;7954;51.914;8.420;2022-08-21T06:06:09;100444.97;;;23.45
15709;BMP180;7954;51.914;8.420;2022-08-21T06:08:37;100443.09;;;23.51
15709;BMP180;7954;51.914;8.420;2022-08-21T06:11:05;100438.13;;;23.53
15709;BMP180;7954;51.914;8.420;2022-08-21T06:13:35;100440.13;;;23.55
15709;BMP180;7954;51.914;8.420;2022-08-21T06:16:06;100439.53;;;23.65
15709;BMP180;7954;51.914;8.420;2022-08-21T06:18:36;100436.19;;;23.73
15709;BMP180;7954;51.914;8.420;2022-08-21T06:21:05;100442.97;;;23.79
15709;BMP180;7954;51.914;8.420;2022-08-21T06:23:34;100446.44;;;23.87
15709;BMP180;7954;51.914;8.420;2022-08-21T06:26:03;100434.97;;;23.92
15709;BMP180;7954;51.914;8.420;2022-08-21T06:28:32;100432.50;;;24.00
15709;BMP180;7954;51.914;8.420;2022-08-21T06:31:00;100435.22;;;24.08
15709;BMP180;7954;51.914;8.420;2022-08-21T06:33:28;100439.56;;;24.16
15709;BMP180;7954;51.914;8.420;2022-08-21T06:35:59;100441.22;;;24.23
15709;BMP180;7954;51.914;8.420;2022-08-21T06:38:29;100427.50;;;24.31
15709;BMP180;7954;51.914;8.420;2022-08-21T06:40:57;100428.34;;;24.38
15709;BMP180;7954;51.914;8.420;2022-08-21T06:43:25;100424.22;;;24.47
15709;BMP180;7954;51.914;8.420;2022-08-21T06:46:05;100418.28;;;24.55
15709;BMP180;7954;51.914;8.420;2022-08-21T06:48:33;100418.94;;;24.61
15709;BMP180;7954;51.914;8.420;2022-08-21T06:51:03;100421.28;;;24.66
15709;BMP180;7954;51.914;8.420;2022-08-21T06:53:31;100419.13;;;24.78
15709;BMP180;7954;51.914;8.420;2022-08-21T06:55:59;100419.25;;;24.86
15709;BMP180;7954;51.914;8.420;2022-08-21T06:58:27;100415.81;;;24.94
15709;BMP180;7954;51.914;8.420;2022-08-21T07:00:55;100417.00;;;25.05
15709;BMP180;7954;51.914;8.420;2022-08-21T07:03:29;100410.00;;;25.04
15709;BMP180;7954;51.914;8.420;2022-08-21T07:05:58;100421.03;;;25.10
15709;BMP180;7954;51.914;8.420;2022-08-21T07:08:28;100407.69;;;25.14
15709;BMP180;7954;51.914;8.420;2022-08-21T07:10:58;100409.41;;;25.22
15709;BMP180;7954;51.914;8.420;2022-08-21T07:13:26;100408.41;;;25.28
15709;BMP180;7954;51.914;8.420;2022-08-21T07:15:54;100407.75;;;25.37
15709;BMP180;7954;51.914;8.420;2022-08-21T07:18:28;100396.13;;;25.49
15709;BMP180;7954;51.914;8.420;2022-08-21T07:20:56;100407.03;;;25.62
15709;BMP180;7954;51.914;8.420;2022-08-21T07:23:28;100398.09;;;25.67
15709;BMP180;7954;51.914;8.420;2022-08-21T07:25:56;100396.94;;;25.72
15709;BMP180;7954;51.914;8.420;2022-08-21T07:28:25;100396.41;;;25.83
15709;BMP180;7954;51.914;8.420;2022-08-21T07:30:56;100399.81;;;25.91
15709;BMP180;7954;51.914;8.420;2022-08-21T07:33:25;100397.13;;;25.97
15709;BMP180;7954;51.914;8.420;2022-08-21T07:35:53;100390.91;;;26.04
15709;BMP180;7954;51.914;8.420;2022-08-21T07:38:22;100390.16;;;26.13
15709;BMP180;7954;51.914;8.420;2022-08-21T07:40:52;100389.47;;;26.23
15709;BMP180;7954;51.914;8.420;2022-08-21T07:43:22;100396.53;;;26.32
15709;BMP180;7954;51.914;8.420;2022-08-21T07:45:50;100398.25;;;26.40
15709;BMP180;7954;51.914;8.420;2022-08-21T07:48:17;100385.91;;;26.38
15709;BMP180;7954;51.914;8.420;2022-08-21T07:50:45;100383.63;;;26.41
15709;BMP180;7954;51.914;8.420;2022-08-21T07:53:14;100390.97;;;26.45
15709;BMP180;7954;51.914;8.420;2022-08-21T07:55:43;100387.50;;;26.53
15709;BMP180;7954;51.914;8.420;2022-08-21T07:58:12;100386.78;;;26.62
15709;BMP180;7954;51.914;8.420;2022-08-21T08:00:40;100388.00;;;26.74
15709;BMP180;7954;51.914;8.420;2022-08-21T08:03:08;100390.50;;;26.89
15709;BMP180;7954;51.914;8.420;2022-08-21T08:05:36;100382.41;;;26.95
15709;BMP180;7954;51.914;8.420;2022-08-21T08:08:05;100378.59;;;26.91
15709;BMP180;7954;51.914;8.420;2022-08-21T08:10:35;100385.06;;;27.03
15709;BMP180;7954;51.914;8.420;2022-08-21T08:13:03;100377.13;;;27.19
15709;BMP180;7954;51.914;8.420;2022-08-21T08:15:37;100376.66;;;27.31
15709;BMP180;7954;51.914;8.420;2022-08-21T08:18:08;100374.56;;;27.44
15709;BMP180;7954;51.914;8.420;2022-08-21T08:20:36;100371.47;;;27.48
15709;BMP180;7954;51.914;8.420;2022-08-21T08:23:05;100368.31;;;27.59
15709;BMP180;7954;51.914;8.420;2022-08-21T08:25:34;100367.84;;;27.71
15709;BMP180;7954;51.914;8.420;2022-08-21T08:28:03;100367.34;;;27.84
15709;BMP180;7954;51.914;8.420;2022-08-21T08:30:45;100370.50;;;27.98
15709;BMP180;7954;51.914;8.420;2022-08-21T08:33:14;100361.03;;;28.07
15709;BMP180;7954;51.914;8.420;2022-08-21T08:35:44;100365.56;;;28.18
15709;BMP180;7954;51.914;8.420;2022-08-21T08:38:14;100346.13;;;28.23
15709;BMP180;7954;51.914;8.420;2022-08-21T08:40:52;100346.59;;;28.27
15709;BMP180;7954;51.914;8.420;2022-08-21T08:43:21;100336.94;;;28.35
15709;BMP180;7954;51.914;8.420;2022-08-21T08:45:53;100334.56;;;28.46
15709;BMP180;7954;51.914;8.420;2022-08-21T08:48:34;100335.28;;;28.54
15709;BMP180;7954;51.914;8.420;2022-08-21T08:51:08;100340.16;;;28.59
15709;BMP180;7954;51.914;8.420;2022-08-21T08:53:47;100336.16;;;28.62
15709;BMP180;7954;51.914;8.420;2022-08-21T08:56:22;100340.25;;;28.69
15709;BMP180;7954;51.914;8.420;2022-08-21T08:58:52;100336.97;;;28.80
15709;BMP180;7954;51.914;8.420;2022-08-21T09:01:21;100323.78;;;28.87
15709;BMP180;7954;51.914;8.420;2022-08-21T09:03:51;100334.28;;;28.97
15709;BMP180;7954;51.914;8.420;2022-08-21T09:06:39;100316.50;;;29.01
15709;BMP180;7954;51.914;8.420;2022-08-21T09:09:18;100319.22;;;29.21
15709;BMP180;7954;51.914;8.420;2022-08-21T09:12:03;100314.88;;;29.30
15709;BMP180;7954;51.914;8.420;2022-08-21T09:14:42;100308.81;;;29.39
15709;BMP180;7954;51.914;8.420;2022-08-21T09:17:27;100319.59;;;29.34
15709;BMP180;7954;51.914;8.420;2022-08-21T09:20:11;100313.78;;;29.10
15709;BMP180;7954;51.914;8.420;2022-08-21T09:22:52;100304.94;;;29.26
15709;BMP180;7954;51.914;8.420;2022-08-21T09:25:25;100310.44;;;29.47
15709;BMP180;7954;51.914;8.420;2022-08-21T09:27:53;100308.56;;;29.65
15709;BMP180;7954;51.914;8.420;2022-08-21T09:30:26;100305.69;;;29.90
15709;BMP180;7954;51.914;8.420;2022-08-21T09:32:56;100304.94;;;30.01
15709;BMP180;7954;51.914;8.420;2022-08-21T09:35:25;100306.41;;;30.07
15709;BMP180;7954;51.914;8.420;2022-08-21T09:37:55;100301.03;;;29.96
15709;BMP180;7954;51.914;8.420;2022-08-21T09:40:30;100299.75;;;30.01
15709;BMP180;7954;51.914;8.420;2022-08-21T09:43:00;100303.44;;;30.23
15709;BMP180;7954;51.914;8.420;2022-08-21T09:45:29;100294.19;;;30.36
15709;BMP180;7954;51.914;8.420;2022-08-21T09:48:10;100285.59;;;30.27
15709;BMP180;7954;51.914;8.420;2022-08-21T09:50:39;100294.06;;;30.25
15709;BMP180;7954;51.914;8.420;2022-08-21T09:53:15;100284.69;;;30.27
15709;BMP180;7954;51.914;8.420;2022-08-21T09:55:51;100287.31;;;30.37
15709;BMP180;7954;51.914;8.420;2022-08-21T09:58:39;100291.13;;;30.50
15709;BMP180;7954;51.914;8.420;2022-08-21T10:01:13;100283.31;;;30.50
15709;BMP180;7954;51.914;8.420;2022-08-21T10:03:43;100274.06;;;30.63
15709;BMP180;7954;51.914;8.420;2022-08-21T10:06:22;100265.41;;;30.84
15709;BMP180;7954;51.914;8.420;2022-08-21T10:08:50;100268.41;;;30.89
15709;BMP180;7954;51.914;8.420;2022-08-21T10:11:24;100267.13;;;31.04
15709;BMP180;7954;51.914;8.420;2022-08-21T10:14:01;100264.91;;;30.88
15709;BMP180;7954;51.914;8.420;2022-08-21T10:16:40;100254.19;;;30.85
15709;BMP180;7954;51.914;8.420;2022-08-21T10:19:23;100255.25;;;30.87
15709;BMP180;7954;51.914;8.420;2022-08-21T10:22:00;100267.25;;;30.56
15709;BMP180;7954;51.914;8.420;2022-08-21T10:24:33;100268.81;;;30.44
15709;BMP180;7954;51.914;8.420;2022-08-21T10:27:14;100270.53;;;30.43
15709;BMP180;7954;51.914;8.420;2022-08-21T10:29:47;100257.47;;;30.43
15709;BMP180;7954;51.914;8.420;2022-08-21T10:32:27;100263.09;;;30.58
15709;BMP180;7954;51.914;8.420;2022-08-21T10:35:08;100244.94;;;30.79
15709;BMP180;7954;51.914;8.420;2022-08-21T10:37:48;100245.06;;;30.80
15709;BMP180;7954;51.914;8.420;2022-08-21T10:40:24;100246.16;;;30.62
15709;BMP180;7954;51.914;8.420;2022-08-21T10:43:15;100255.47;;;30.31
15709;BMP180;7954;51.914;8.420;2022-08-21T10:45:54;100251.81;;;30.29
15709;BMP180;7954;51.914;8.420;2022-08-21T10:48:28;100248.72;;;30.33
15709;BMP180;7954;51.914;8.420;2022-08-21T10:51:04;100244.66;;;30.36
15709;BMP180;7954;51.914;8.420;2022-08-21T10:53:45;100236.09;;;30.57
15709;BMP180;7954;51.914;8.420;2022-08-21T10:56:18;100244.44;;;30.63
15709;BMP180;7954;51.914;8.420;2022-08-21T10:58:57;100236.72;;;30.64
15709;BMP180;7954;51.914;8.420;2022-08-21T11:01:30;100226.00;;;30.91
15709;BMP180;7954;51.914;8.420;2022-08-21T11:04:09;100231.00;;;30.98
15709;BMP180;7954;51.914;8.420;2022-08-21T11:06:46;100228.88;;;31.04
15709;BMP180;7954;51.914;8.420;2022-08-21T11:09:18;100241.00;;;31.14
15709;BMP180;7954;51.914;8.420;2022-08-21T11:11:52;100232.22;;;31.23
15709;BMP180;7954;51.914;8.420;2022-08-21T11:14:43;100228.25;;;31.38
15709;BMP180;7954;51.914;8.420;2022-08-21T11:17:18;100223.88;;;31.58
15709;BMP180;7954;51.914;8.420;2022-08-21T11:19:53;100222.25;;;31.70
15709;BMP180;7954;51.914;8.420;2022-08-21T11:22:30;100217.69;;;31.89
15709;BMP180;7954;51.914;8.420;2022-08-21T11:25:07;100208.22;;;32.01
15709;BMP180;7954;51.914;8.420;2022-08-21T11:27:42;100221.47;;;32.14
15709;BMP180;7954;51.914;8.420;2022-08-21T11:30:12;100216.97;;;31.80
15709;BMP180;7954;51.914;8.420;2022-08-21T11:33:02;100220.53;;;31.49
15709;BMP180;7954;51.914;8.420;2022-08-21T11:35:36;100222.97;;;31.58
15709;BMP180;7954;51.914;8.420;2022-08-21T11:38:21;100209.19;;;31.70
15709;BMP180;7954;51.914;8.420;2022-08-21T11:44:06;100207.72;;;31.95
15709;BMP180;7954;51.914;8.420;2022-08-21T11:46:41;100206.13;;;32.18
15709;BMP180;7954;51.914;8.420;2022-08-21T11:49:25;100205.81;;;32.25
15709;BMP180;7954;51.914;8.420;2022-08-21T11:52:02;100212.63;;;32.23
15709;BMP180;7954;51.914;8.420;2022-08-21T11:54:39;100216.25;;;31.92
15709;BMP180;7954;51.914;8.420;2022-08-21T11:57:15;100208.91;;;31.89
15709;BMP180;7954;51.914;8.420;2022-08-21T11:59:47;100213.06;;;31.96
15709;BMP180;7954;51.914;8.420;2022-08-21T12:02:19;100216.66;;;32.08
15709;BMP180;7954;51.914;8.420;2022-08-21T12:04:53;100208.03;;;32.09
15709;BMP180;7954;51.914;8.420;2022-08-21T12:07:34;100207.03;;;32.07
15709;BMP180;7954;51.914;8.420;2022-08-21T12:10:06;100215.31;;;32.13
15709;BMP180;7954;51.914;8.420;2022-08-21T12:12:37;100205.34;;;32.19
15709;BMP180;7954;51.914;8.420;2022-08-21T12:15:24;100197.19;;;32.26
15709;BMP180;7954;51.914;8.420;2022-08-21T12:17:58;100194.72;;;32.39
15709;BMP180;7954;51.914;8.420;2022-08-21T12:20:39;100210.25;;;32.15
15709;BMP180;7954;51.914;8.420;2022-08-21T12:23:26;100207.72;;;31.74
15709;BMP180;7954;51.914;8.420;2022-08-21T12:26:13;100206.88;;;31.85
15709;BMP180;7954;51.914;8.420;2022-08-21T12:28:46;100200.53;;;32.02
15709;BMP180;7954;51.914;8.420;2022-08-21T12:31:25;100201.91;;;32.09
15709;BMP180;7954;51.914;8.420;2022-08-21T12:33:58;100195.22;;;32.12
15709;BMP180;7954;51.914;8.420;2022-08-21T12:36:35;100201.44;;;32.03
15709;BMP180;7954;51.914;8.420;2022-08-21T12:39:12;100204.84;;;31.92
15709;BMP180;7954;51.914;8.420;2022-08-21T12:41:47;100199.59;;;32.02
15709;BMP180;7954;51.914;8.420;2022-08-21T12:44:21;100201.47;;;32.47
15709;BMP180;7954;51.914;8.420;2022-08-21T12:46:56;100197.09;;;32.80
15709;BMP180;7954;51.914;8.420;2022-08-21T12:49:27;100196.44;;;32.94
15709;BMP180;7954;51.914;8.420;2022-08-21T12:52:03;100199.66;;;33.13
15709;BMP180;7954;51.914;8.420;2022-08-21T12:54:38;100203.81;;;33.00
15709;BMP180;7954;51.914;8.420;2022-08-21T12:57:09;100202.38;;;33.15
15709;BMP180;7954;51.914;8.420;2022-08-21T12:59:44;100190.53;;;33.54
15709;BMP180;7954;51.914;8.420;2022-08-21T13:02:16;100175.84;;;34.16
15709;BMP180;7954;51.914;8.420;2022-08-21T13:04:45;100180.63;;;34.59
15709;BMP180;7954;51.914;8.420;2022-08-21T13:07:22;100173.03;;;35.00
15709;BMP180;7954;51.914;8.420;2022-08-21T13:09:54;100169.88;;;35.44
15709;BMP180;7954;51.914;8.420;2022-08-21T13:12:25;100172.56;;;35.59
15709;BMP180;7954;51.914;8.420;2022-08-21T13:15:02;100165.97;;;35.78
15709;BMP180;7954;51.914;8.420;2022-08-21T13:17:39;100162.84;;;36.25
15709;BMP180;7954;51.914;8.420;2022-08-21T13:20:10;100166.09;;;36.49
15709;BMP180;7954;51.914;8.420;2022-08-21T13:22:46;100157.13;;;36.88
15709;BMP180;7954;51.914;8.420;2022-08-21T13:25:18;100158.53;;;36.98
15709;BMP180;7954;51.914;8.420;2022-08-21T13:27:59;100173.47;;;36.83
15709;BMP180;7954;51.914;8.420;2022-08-21T13:30:29;100160.19;;;36.81
15709;BMP180;7954;51.914;8.420;2022-08-21T13:32:59;100164.09;;;36.73
15709;BMP180;7954;51.914;8.420;2022-08-21T13:35:31;100174.50;;;37.15
15709;BMP180;7954;51.914;8.420;2022-08-21T13:38:03;100158.97;;;37.20
15709;BMP180;7954;51.914;8.420;2022-08-21T13:40:41;100150.88;;;37.31
15709;BMP180;7954;51.914;8.420;2022-08-21T13:43:13;100152.75;;;37.19
15709;BMP180;7954;51.914;8.420;2022-08-21T13:45:49;100151.13;;;37.35
15709;BMP180;7954;51.914;8.420;2022-08-21T13:48:18;100151.97;;;37.66
15709;BMP180;7954;51.914;8.420;2022-08-21T13:50:50;100170.38;;;37.95
15709;BMP180;7954;51.914;8.420;2022-08-21T13:53:23;100170.84;;;37.88
15709;BMP180;7954;51.914;8.420;2022-08-21T13:55:56;100167.88;;;37.52
15709;BMP180;7954;51.914;8.420;2022-08-21T13:58:29;100167.03;;;37.37
15709;BMP180;7954;51.914;8.420;2022-08-21T14:00:59;100158.16;;;37.97
15709;BMP180;7954;51.914;8.420;2022-08-21T14:03:34;100159.63;;;38.08
15709;BMP180;7954;51.914;8.420;2022-08-21T14:06:11;100152.38;;;38.04
15709;BMP180;7954;51.914;8.420;2022-08-21T14:08:39;100165.22;;;37.82
15709;BMP180;7954;51.914;8.420;2022-08-21T14:11:11;100172.34;;;37.69
15709;BMP180;7954;51.914;8.420;2022-08-21T14:13:42;100164.59;;;37.56
15709;BMP180;7954;51.914;8.420;2022-08-21T14:16:16;100169.53;;;37.05
15709;BMP180;7954;51.914;8.420;2022-08-21T14:18:53;100166.00;;;37.05
15709;BMP180;7954;51.914;8.420;2022-08-21T14:21:36;100168.25;;;36.56
15709;BMP180;7954;51.914;8.420;2022-08-21T14:24:08;100158.69;;;37.30
15709;BMP180;7954;51.914;8.420;2022-08-21T14:26:46;100160.25;;;38.18
15709;BMP180;7954;51.914;8.420;2022-08-21T14:29:19;100166.69;;;38.72
15709;BMP180;7954;51.914;8.420;2022-08-21T14:31:50;100151.13;;;38.61
15709;BMP180;7954;51.914;8.420;2022-08-21T14:34:21;100165.63;;;38.53
15709;BMP180;7954;51.914;8.420;2022-08-21T14:36:52;100160.72;;;38.94
15709;BMP180;7954;51.914;8.420;2022-08-21T14:39:20;100166.81;;;39.09